sensor_id;sensor_type;location;lat;lon;timestamp;temperature;humidity
25248;DHT22;13191;47.472;11.214;2022-11-15T00:00:53;3.10;99.90
25248;DHT22;13191;47.472;11.214;2022-11-15T00:03:21;3.10;99.90
25248;DHT22;13191;47.472;11.214;2022-11-15T00:05:47;3.10;99.90
25248;DHT22;13191;47.472;11.214;2022-11-15T00:08:13;3.10;99.90
25248;DHT22;13191;47.472;11.214;2022-11-15T00:10:39;3.10;99.90
25248;DHT22;13191;47.472;11.214;2022-11-15T00:13:09;3.20;99.90
25248;DHT22;13191;47.472;11.214;2022-11-15T00:15:36;3.20;99.90
25248;DHT22;13191;47.472;11.214;2022-11-15T00:18:06;3.20;99.90
25248;DHT22;13191;47.472;11.214;2022-11-15T00:20:36;3.20;99.90
25248;DHT22;13191;47.472;11.214;2022-11-15T00:23:03;3.10;99.90
25248;DHT22;13191;47.472;11.214;2022-11-15T00:25:29;3.00;99.90
25248;DHT22;13191;47.472;11.214;2022-11-15T00:27:56;3.00;99.90
25248;DHT22;13191;47.472;11.214;2022-11-15T00:30:22;2.90;99.90
25248;DHT22;13191;47.472;11.214;2022-11-15T00:32:48;2.90;99.90
25248;DHT22;13191;47.472;11.214;2022-11-15T00:35:13;2.90;99.90
25248;DHT22;13191;47.472;11.214;2022-11-15T00:37:39;2.90;99.90
25248;DHT22;13191;47.472;11.214;2022-11-15T00:40:05;2.90;99.90
25248;DHT22;13191;47.472;11.214;2022-11-15T00:42:31;3.00;99.90
25248;DHT22;13191;47.472;11.214;2022-11-15T00:44:56;3.00;99.90
25248;DHT22;13191;47.472;11.214;2022-11-15T00:47:22;2.90;99.90
25248;DHT22;13191;47.472;11.214;2022-11-15T00:49:47;2.90;99.90
25248;DHT22;13191;47.472;11.214;2022-11-15T00:52:13;2.80;99.90
25248;DHT22;13191;47.472;11.214;2022-11-15T00:57:04;2.70;99.90
25248;DHT22;13191;47.472;11.214;2022-11-15T00:59:30;2.70;99.90
25248;DHT22;13191;47.472;11.214;2022-11-15T01:01:55;2.80;99.90
25248;DHT22;13191;47.472;11.214;2022-11-15T01:04:21;2.90;99.90
25248;DHT22;13191;47.472;11.214;2022-11-15T01:06:47;2.80;99.90
25248;DHT22;13191;47.472;11.214;2022-11-15T01:09:12;2.80;99.90
25248;DHT22;13191;47.472;11.214;2022-11-15T01:11:39;2.70;99.90
25248;DHT22;13191;47.472;11.214;2022-11-15T01:14:04;2.60;99.90
25248;DHT22;13191;47.472;11.214;2022-11-15T01:16:30;2.60;99.90
25248;DHT22;13191;47.472;11.214;2022-11-15T01:18:55;2.60;99.90
25248;DHT22;13191;47.472;11.214;2022-11-15T01:21:21;2.60;99.90
25248;DHT22;13191;47.472;11.214;2022-11-15T01:23:47;2.70;99.90
25248;DHT22;13191;47.472;11.214;2022-11-15T01:26:14;2.70;99.90
25248;DHT22;13191;47.472;11.214;2022-11-15T01:28:41;2.70;99.90
25248;DHT22;13191;47.472;11.214;2022-11-15T01:31:14;2.70;99.90
25248;DHT22;13191;47.472;11.214;2022-11-15T01:33:40;2.70;99.90
25248;DHT22;13191;47.472;11.214;2022-11-15T01:36:08;2.70;99.90
25248;DHT22;13191;47.472;11.214;2022-11-15T01:38:35;2.60;99.90
25248;DHT22;13191;47.472;11.214;2022-11-15T01:41:00;2.30;99.90
25248;DHT22;13191;47.472;11.214;2022-11-15T01:43:29;2.30;99.90
25248;DHT22;13191;47.472;11.214;2022-11-15T01:46:08;2.30;99.90
25248;DHT22;13191;47.472;11.214;2022-11-15T01:48:40;2.30;99.90
25248;DHT22;13191;47.472;11.214;2022-11-15T01:51:10;2.40;99.90
25248;DHT22;13191;47.472;11.214;2022-11-15T01:53:39;2.40;99.90
25248;DHT22;13191;47.472;11.214;2022-11-15T01:56:09;2.30;99.90
25248;DHT22;13191;47.472;11.214;2022-11-15T01:58:36;2.20;99.90
25248;DHT22;13191;47.472;11.214;2022-11-15T02:01:02;2.30;99.90
25248;DHT22;13191;47.472;11.214;2022-11-15T02:04:16;2.20;99.90
25248;DHT22;13191;47.472;11.214;2022-11-15T02:06:22;2.30;99.90
25248;DHT22;13191;47.472;11.214;2022-11-15T02:08:49;2.30;99.90
25248;DHT22;13191;47.472;11.214;2022-11-15T02:11:14;2.30;99.90
25248;DHT22;13191;47.472;11.214;2022-11-15T02:13:40;2.10;99.90
25248;DHT22;13191;47.472;11.214;2022-11-15T02:33:26;2.20;99.90
25248;DHT22;13191;47.472;11.214;2022-11-15T02:36:00;2.30;99.90
25248;DHT22;13191;47.472;11.214;2022-11-15T02:38:40;2.30;99.90
25248;DHT22;13191;47.472;11.214;2022-11-15T02:41:13;2.30;99.90
25248;DHT22;13191;47.472;11.214;2022-11-15T02:43:48;2.40;99.90
25248;DHT22;13191;47.472;11.214;2022-11-15T02:46:48;2.30;99.90
25248;DHT22;13191;47.472;11.214;2022-11-15T02:49:35;2.40;99.90
25248;DHT22;13191;47.472;11.214;2022-11-15T02:52:03;2.40;99.90
25248;DHT22;13191;47.472;11.214;2022-11-15T02:54:30;2.40;99.90
25248;DHT22;13191;47.472;11.214;2022-11-15T02:57:24;2.40;99.90
25248;DHT22;13191;47.472;11.214;2022-11-15T03:00:04;2.40;99.90
25248;DHT22;13191;47.472;11.214;2022-11-15T03:11:10;2.30;99.90
25248;DHT22;13191;47.472;11.214;2022-11-15T03:14:42;2.30;99.90
25248;DHT22;13191;47.472;11.214;2022-11-15T03:19:50;2.30;99.90
25248;DHT22;13191;47.472;11.214;2022-11-15T03:22:20;2.30;99.90
25248;DHT22;13191;47.472;11.214;2022-11-15T03:24:50;2.30;99.90
25248;DHT22;13191;47.472;11.214;2022-11-15T03:27:21;2.30;99.90
25248;DHT22;13191;47.472;11.214;2022-11-15T03:29:52;2.40;99.90
25248;DHT22;13191;47.472;11.214;2022-11-15T03:32:31;2.40;99.90
25248;DHT22;13191;47.472;11.214;2022-11-15T03:35:06;2.40;99.90
25248;DHT22;13191;47.472;11.214;2022-11-15T03:37:48;2.30;99.90
25248;DHT22;13191;47.472;11.214;2022-11-15T03:40:17;2.20;99.90
25248;DHT22;13191;47.472;11.214;2022-11-15T03:43:00;2.20;99.90
25248;DHT22;13191;47.472;11.214;2022-11-15T03:45:36;2.30;99.90
25248;DHT22;13191;47.472;11.214;2022-11-15T03:48:13;2.20;99.90
25248;DHT22;13191;47.472;11.214;2022-11-15T03:50:41;2.20;99.90
25248;DHT22;13191;47.472;11.214;2022-11-15T03:53:07;2.10;99.90
25248;DHT22;13191;47.472;11.214;2022-11-15T03:55:33;2.20;99.90
25248;DHT22;13191;47.472;11.214;2022-11-15T03:58:00;2.20;99.90
25248;DHT22;13191;47.472;11.214;2022-11-15T04:00:26;2.20;99.90
25248;DHT22;13191;47.472;11.214;2022-11-15T04:02:52;2.20;99.90
25248;DHT22;13191;47.472;11.214;2022-11-15T04:05:18;2.20;99.90
25248;DHT22;13191;47.472;11.214;2022-11-15T04:07:43;2.20;99.90
25248;DHT22;13191;47.472;11.214;2022-11-15T04:10:10;2.10;99.90
25248;DHT22;13191;47.472;11.214;2022-11-15T04:12:38;2.10;99.90
25248;DHT22;13191;47.472;11.214;2022-11-15T04:15:08;2.10;99.90
25248;DHT22;13191;47.472;11.214;2022-11-15T04:17:36;2.00;99.90
25248;DHT22;13191;47.472;11.214;2022-11-15T04:20:07;2.00;99.90
25248;DHT22;13191;47.472;11.214;2022-11-15T04:22:52;2.00;99.90
25248;DHT22;13191;47.472;11.214;2022-11-15T04:25:37;2.00;99.90
25248;DHT22;13191;47.472;11.214;2022-11-15T04:28:02;2.00;99.90
25248;DHT22;13191;47.472;11.214;2022-11-15T04:30:28;2.10;99.90
25248;DHT22;13191;47.472;11.214;2022-11-15T04:32:54;2.10;99.90
25248;DHT22;13191;47.472;11.214;2022-11-15T04:35:19;2.00;99.90
25248;DHT22;13191;47.472;11.214;2022-11-15T04:37:45;2.10;99.90
25248;DHT22;13191;47.472;11.214;2022-11-15T04:40:11;2.00;99.90
25248;DHT22;13191;47.472;11.214;2022-11-15T04:42:36;2.00;99.90
25248;DHT22;13191;47.472;11.214;2022-11-15T04:45:02;1.90;99.90
25248;DHT22;13191;47.472;11.214;2022-11-15T04:47:28;1.80;99.90
25248;DHT22;13191;47.472;11.214;2022-11-15T04:49:54;1.70;99.90
25248;DHT22;13191;47.472;11.214;2022-11-15T04:52:20;1.60;99.90
25248;DHT22;13191;47.472;11.214;2022-11-15T04:54:46;1.50;99.90
25248;DHT22;13191;47.472;11.214;2022-11-15T04:57:11;1.50;99.90
25248;DHT22;13191;47.472;11.214;2022-11-15T04:59:37;1.50;99.90
25248;DHT22;13191;47.472;11.214;2022-11-15T05:02:02;1.40;99.90
25248;DHT22;13191;47.472;11.214;2022-11-15T05:04:28;1.50;99.90
25248;DHT22;13191;47.472;11.214;2022-11-15T05:06:53;1.50;99.90
25248;DHT22;13191;47.472;11.214;2022-11-15T05:09:20;1.60;99.90
25248;DHT22;13191;47.472;11.214;2022-11-15T05:11:46;1.60;99.90
25248;DHT22;13191;47.472;11.214;2022-11-15T05:14:12;1.70;99.90
25248;DHT22;13191;47.472;11.214;2022-11-15T05:16:38;1.70;99.90
25248;DHT22;13191;47.472;11.214;2022-11-15T05:19:03;1.70;99.90
25248;DHT22;13191;47.472;11.214;2022-11-15T05:21:29;1.80;99.90
25248;DHT22;13191;47.472;11.214;2022-11-15T05:23:55;1.80;99.90
25248;DHT22;13191;47.472;11.214;2022-11-15T05:26:21;1.80;99.90
25248;DHT22;13191;47.472;11.214;2022-11-15T05:28:46;1.70;99.90
25248;DHT22;13191;47.472;11.214;2022-11-15T05:31:16;1.70;99.90
25248;DHT22;13191;47.472;11.214;2022-11-15T05:33:44;1.60;99.90
25248;DHT22;13191;47.472;11.214;2022-11-15T05:36:31;1.70;99.90
25248;DHT22;13191;47.472;11.214;2022-11-15T05:38:58;1.60;99.90
25248;DHT22;13191;47.472;11.214;2022-11-15T05:41:30;1.70;99.90
25248;DHT22;13191;47.472;11.214;2022-11-15T05:43:58;1.60;99.90
25248;DHT22;13191;47.472;11.214;2022-11-15T05:46:23;1.60;99.90
25248;DHT22;13191;47.472;11.214;2022-11-15T05:48:50;1.60;99.90
25248;DHT22;13191;47.472;11.214;2022-11-15T05:51:18;1.50;99.90
25248;DHT22;13191;47.472;11.214;2022-11-15T05:53:45;1.50;99.90
25248;DHT22;13191;47.472;11.214;2022-11-15T05:56:11;1.50;99.90
25248;DHT22;13191;47.472;11.214;2022-11-15T05:58:37;1.50;99.90
25248;DHT22;13191;47.472;11.214;2022-11-15T06:01:04;1.40;99.90
25248;DHT22;13191;47.472;11.214;2022-11-15T06:03:30;1.50;99.90
25248;DHT22;13191;47.472;11.214;2022-11-15T06:05:57;1.40;99.90
25248;DHT22;13191;47.472;11.214;2022-11-15T06:08:22;1.40;99.90
25248;DHT22;13191;47.472;11.214;2022-11-15T06:10:48;1.20;99.90
25248;DHT22;13191;47.472;11.214;2022-11-15T06:13:13;1.20;99.90
25248;DHT22;13191;47.472;11.214;2022-11-15T06:15:39;1.20;99.90
25248;DHT22;13191;47.472;11.214;2022-11-15T06:18:05;1.30;99.90
25248;DHT22;13191;47.472;11.214;2022-11-15T06:20:30;1.30;99.90
25248;DHT22;13191;47.472;11.214;2022-11-15T06:23:00;1.30;99.90
25248;DHT22;13191;47.472;11.214;2022-11-15T06:25:27;1.40;99.90
25248;DHT22;13191;47.472;11.214;2022-11-15T06:27:58;1.40;99.90
25248;DHT22;13191;47.472;11.214;2022-11-15T06:30:25;1.30;99.90
25248;DHT22;13191;47.472;11.214;2022-11-15T06:32:51;1.30;99.90
25248;DHT22;13191;47.472;11.214;2022-11-15T06:35:17;1.30;99.90
25248;DHT22;13191;47.472;11.214;2022-11-15T06:37:42;1.30;99.90
25248;DHT22;13191;47.472;11.214;2022-11-15T06:40:09;1.30;99.90
25248;DHT22;13191;47.472;11.214;2022-11-15T06:42:35;1.30;99.90
25248;DHT22;13191;47.472;11.214;2022-11-15T06:45:01;1.40;99.90
25248;DHT22;13191;47.472;11.214;2022-11-15T06:47:27;1.40;99.90
25248;DHT22;13191;47.472;11.214;2022-11-15T06:49:52;1.40;99.90
25248;DHT22;13191;47.472;11.214;2022-11-15T06:52:18;1.40;99.90
25248;DHT22;13191;47.472;11.214;2022-11-15T06:54:45;1.30;99.90
25248;DHT22;13191;47.472;11.214;2022-11-15T06:57:10;1.40;99.90
25248;DHT22;13191;47.472;11.214;2022-11-15T06:59:36;1.40;99.90
25248;DHT22;13191;47.472;11.214;2022-11-15T07:02:03;1.50;99.90
25248;DHT22;13191;47.472;11.214;2022-11-15T07:04:28;1.50;99.90
25248;DHT22;13191;47.472;11.214;2022-11-15T07:06:54;1.50;99.90
25248;DHT22;13191;47.472;11.214;2022-11-15T07:09:20;1.50;99.90
25248;DHT22;13191;47.472;11.214;2022-11-15T07:11:45;1.50;99.90
25248;DHT22;13191;47.472;11.214;2022-11-15T07:14:11;1.60;99.90
25248;DHT22;13191;47.472;11.214;2022-11-15T07:16:37;1.60;99.90
25248;DHT22;13191;47.472;11.214;2022-11-15T07:19:02;1.60;99.90
25248;DHT22;13191;47.472;11.214;2022-11-15T07:21:28;1.60;99.90
25248;DHT22;13191;47.472;11.214;2022-11-15T07:23:54;1.50;99.90
25248;DHT22;13191;47.472;11.214;2022-11-15T07:26:19;1.60;99.90
25248;DHT22;13191;47.472;11.214;2022-11-15T07:28:45;1.70;99.90
25248;DHT22;13191;47.472;11.214;2022-11-15T07:31:11;1.70;99.90
25248;DHT22;13191;47.472;11.214;2022-11-15T07:33:36;1.80;99.90
25248;DHT22;13191;47.472;11.214;2022-11-15T07:36:04;1.80;99.90
25248;DHT22;13191;47.472;11.214;2022-11-15T07:38:31;1.90;99.90
25248;DHT22;13191;47.472;11.214;2022-11-15T07:40:58;2.00;99.90
25248;DHT22;13191;47.472;11.214;2022-11-15T07:43:24;2.00;99.90
25248;DHT22;13191;47.472;11.214;2022-11-15T07:45:50;2.10;99.90
25248;DHT22;13191;47.472;11.214;2022-11-15T07:48:15;2.10;99.90
25248;DHT22;13191;47.472;11.214;2022-11-15T07:50:42;2.10;99.90
25248;DHT22;13191;47.472;11.214;2022-11-15T07:53:09;2.20;99.90
25248;DHT22;13191;47.472;11.214;2022-11-15T07:55:40;2.20;99.90
25248;DHT22;13191;47.472;11.214;2022-11-15T07:58:08;2.30;99.90
25248;DHT22;13191;47.472;11.214;2022-11-15T08:00:35;2.30;99.90
25248;DHT22;13191;47.472;11.214;2022-11-15T08:03:05;2.40;99.90
25248;DHT22;13191;47.472;11.214;2022-11-15T08:05:31;2.50;99.90
25248;DHT22;13191;47.472;11.214;2022-11-15T08:07:57;2.50;99.90
25248;DHT22;13191;47.472;11.214;2022-11-15T08:10:23;2.60;99.90
25248;DHT22;13191;47.472;11.214;2022-11-15T08:13:00;2.60;99.90
25248;DHT22;13191;47.472;11.214;2022-11-15T08:15:27;2.70;99.90
25248;DHT22;13191;47.472;11.214;2022-11-15T08:17:56;2.80;99.90
25248;DHT22;13191;47.472;11.214;2022-11-15T08:20:23;2.90;99.90
25248;DHT22;13191;47.472;11.214;2022-11-15T08:22:48;3.00;99.90
25248;DHT22;13191;47.472;11.214;2022-11-15T08:25:14;3.10;99.90
25248;DHT22;13191;47.472;11.214;2022-11-15T08:27:40;3.20;99.90
25248;DHT22;13191;47.472;11.214;2022-11-15T08:30:06;3.30;99.90
25248;DHT22;13191;47.472;11.214;2022-11-15T08:32:32;3.30;99.90
25248;DHT22;13191;47.472;11.214;2022-11-15T08:34:57;3.40;99.90
25248;DHT22;13191;47.472;11.214;2022-11-15T08:37:23;3.50;99.90
25248;DHT22;13191;47.472;11.214;2022-11-15T08:39:48;3.60;99.90
25248;DHT22;13191;47.472;11.214;2022-11-15T08:42:14;3.70;99.90
25248;DHT22;13191;47.472;11.214;2022-11-15T08:44:41;3.80;99.90
25248;DHT22;13191;47.472;11.214;2022-11-15T08:47:08;3.90;99.90
25248;DHT22;13191;47.472;11.214;2022-11-15T08:49:36;4.00;99.90
25248;DHT22;13191;47.472;11.214;2022-11-15T08:52:01;4.20;99.90
25248;DHT22;13191;47.472;11.214;2022-11-15T08:54:27;4.20;99.90
25248;DHT22;13191;47.472;11.214;2022-11-15T08:56:52;4.40;99.90
25248;DHT22;13191;47.472;11.214;2022-11-15T08:59:18;4.50;99.90
25248;DHT22;13191;47.472;11.214;2022-11-15T09:01:43;4.60;99.90
25248;DHT22;13191;47.472;11.214;2022-11-15T09:04:09;4.70;99.90
25248;DHT22;13191;47.472;11.214;2022-11-15T09:06:35;4.80;99.90
25248;DHT22;13191;47.472;11.214;2022-11-15T09:09:01;4.90;99.90
25248;DHT22;13191;47.472;11.214;2022-11-15T09:11:26;5.00;99.90
25248;DHT22;13191;47.472;11.214;2022-11-15T09:13:52;5.10;99.90
25248;DHT22;13191;47.472;11.214;2022-11-15T09:16:18;5.20;99.90
25248;DHT22;13191;47.472;11.214;2022-11-15T09:18:43;5.30;99.90
25248;DHT22;13191;47.472;11.214;2022-11-15T09:21:09;5.50;99.90
25248;DHT22;13191;47.472;11.214;2022-11-15T09:23:36;5.60;99.90
25248;DHT22;13191;47.472;11.214;2022-11-15T09:26:03;5.70;99.90
25248;DHT22;13191;47.472;11.214;2022-11-15T09:28:30;5.80;99.90
25248;DHT22;13191;47.472;11.214;2022-11-15T09:31:00;5.90;99.90
25248;DHT22;13191;47.472;11.214;2022-11-15T09:33:27;6.10;99.90
25248;DHT22;13191;47.472;11.214;2022-11-15T09:35:52;6.20;99.90
25248;DHT22;13191;47.472;11.214;2022-11-15T09:38:18;6.40;99.90
25248;DHT22;13191;47.472;11.214;2022-11-15T09:40:49;6.50;99.90
25248;DHT22;13191;47.472;11.214;2022-11-15T09:49:01;6.80;99.90
25248;DHT22;13191;47.472;11.214;2022-11-15T09:51:56;6.90;99.90
25248;DHT22;13191;47.472;11.214;2022-11-15T09:54:36;7.10;99.90
25248;DHT22;13191;47.472;11.214;2022-11-15T09:57:14;7.20;99.90
25248;DHT22;13191;47.472;11.214;2022-11-15T10:05:37;7.70;99.90
25248;DHT22;13191;47.472;11.214;2022-11-15T10:11:07;7.90;99.90
25248;DHT22;13191;47.472;11.214;2022-11-15T10:13:36;8.10;99.90
25248;DHT22;13191;47.472;11.214;2022-11-15T10:19:03;8.40;99.90
25248;DHT22;13191;47.472;11.214;2022-11-15T10:24:26;8.80;99.90
25248;DHT22;13191;47.472;11.214;2022-11-15T10:26:55;8.90;99.90
25248;DHT22;13191;47.472;11.214;2022-11-15T10:29:22;9.10;99.90
25248;DHT22;13191;47.472;11.214;2022-11-15T10:31:49;9.30;99.90
25248;DHT22;13191;47.472;11.214;2022-11-15T10:34:20;9.40;99.90
25248;DHT22;13191;47.472;11.214;2022-11-15T10:36:46;9.50;99.90
25248;DHT22;13191;47.472;11.214;2022-11-15T10:39:13;9.60;99.90
25248;DHT22;13191;47.472;11.214;2022-11-15T10:41:41;9.70;99.90
25248;DHT22;13191;47.472;11.214;2022-11-15T10:46:34;9.90;99.90
25248;DHT22;13191;47.472;11.214;2022-11-15T10:51:58;10.20;99.90
25248;DHT22;13191;47.472;11.214;2022-11-15T10:54:49;10.30;99.90
25248;DHT22;13191;47.472;11.214;2022-11-15T10:57:27;10.50;99.90
25248;DHT22;13191;47.472;11.214;2022-11-15T11:03:04;10.80;99.90
25248;DHT22;13191;47.472;11.214;2022-11-15T11:05:37;10.90;99.90
25248;DHT22;13191;47.472;11.214;2022-11-15T11:10:55;11.10;99.90
25248;DHT22;13191;47.472;11.214;2022-11-15T11:13:24;11.30;99.90
25248;DHT22;13191;47.472;11.214;2022-11-15T11:21:51;11.70;99.90
25248;DHT22;13191;47.472;11.214;2022-11-15T11:27:33;12.00;99.90
25248;DHT22;13191;47.472;11.214;2022-11-15T11:30:28;12.10;99.90
25248;DHT22;13191;47.472;11.214;2022-11-15T11:38:30;12.60;99.90
25248;DHT22;13191;47.472;11.214;2022-11-15T11:44:02;12.80;99.90
25248;DHT22;13191;47.472;11.214;2022-11-15T11:46:40;12.90;99.90
25248;DHT22;13191;47.472;11.214;2022-11-15T11:52:15;13.20;99.90
25248;DHT22;13191;47.472;11.214;2022-11-15T11:54:51;13.30;99.90
25248;DHT22;13191;47.472;11.214;2022-11-15T12:00:19;13.60;99.90
25248;DHT22;13191;47.472;11.214;2022-11-15T12:03:07;13.70;99.90
25248;DHT22;13191;47.472;11.214;2022-11-15T12:05:49;13.80;99.90
25248;DHT22;13191;47.472;11.214;2022-11-15T12:08:43;14.00;99.90
25248;DHT22;13191;47.472;11.214;2022-11-15T12:11:35;14.10;99.90
25248;DHT22;13191;47.472;11.214;2022-11-15T12:14:22;14.20;99.90
25248;DHT22;13191;47.472;11.214;2022-11-15T12:16:49;14.30;99.90
25248;DHT22;13191;47.472;11.214;2022-11-15T12:19:15;14.50;99.90
25248;DHT22;13191;47.472;11.214;2022-11-15T12:21:49;14.70;99.90
25248;DHT22;13191;47.472;11.214;2022-11-15T12:24:39;14.90;99.90
25248;DHT22;13191;47.472;11.214;2022-11-15T12:27:19;15.00;99.90
25248;DHT22;13191;47.472;11.214;2022-11-15T12:30:02;15.20;99.90
25248;DHT22;13191;47.472;11.214;2022-11-15T12:32:39;15.30;99.90
25248;DHT22;13191;47.472;11.214;2022-11-15T12:35:37;15.50;99.90
25248;DHT22;13191;47.472;11.214;2022-11-15T12:38:04;15.50;99.90
25248;DHT22;13191;47.472;11.214;2022-11-15T12:40:38;15.60;99.90
25248;DHT22;13191;47.472;11.214;2022-11-15T12:43:38;15.70;99.90
25248;DHT22;13191;47.472;11.214;2022-11-15T12:46:08;15.90;99.90
25248;DHT22;13191;47.472;11.214;2022-11-15T12:51:02;16.20;99.90
25248;DHT22;13191;47.472;11.214;2022-11-15T12:53:30;16.40;99.90
25248;DHT22;13191;47.472;11.214;2022-11-15T12:58:53;16.70;99.90
25248;DHT22;13191;47.472;11.214;2022-11-15T13:07:04;17.20;99.90
25248;DHT22;13191;47.472;11.214;2022-11-15T13:14:58;17.80;99.90
25248;DHT22;13191;47.472;11.214;2022-11-15T13:22:51;18.20;99.90
25248;DHT22;13191;47.472;11.214;2022-11-15T13:30:53;18.40;99.90
25248;DHT22;13191;47.472;11.214;2022-11-15T13:33:25;18.50;99.90
25248;DHT22;13191;47.472;11.214;2022-11-15T13:35:55;18.50;99.90
25248;DHT22;13191;47.472;11.214;2022-11-15T13:40:49;18.40;99.90
25248;DHT22;13191;47.472;11.214;2022-11-15T13:43:36;18.40;99.90
25248;DHT22;13191;47.472;11.214;2022-11-15T13:46:23;18.50;99.90
25248;DHT22;13191;47.472;11.214;2022-11-15T13:49:03;18.40;99.90
25248;DHT22;13191;47.472;11.214;2022-11-15T13:51:51;18.40;99.90
25248;DHT22;13191;47.472;11.214;2022-11-15T13:54:58;18.30;99.90
25248;DHT22;13191;47.472;11.214;2022-11-15T13:57:25;18.10;99.90
25248;DHT22;13191;47.472;11.214;2022-11-15T13:59:57;17.90;99.90
25248;DHT22;13191;47.472;11.214;2022-11-15T14:02:27;17.70;99.90
25248;DHT22;13191;47.472;11.214;2022-11-15T14:05:03;17.20;99.90
25248;DHT22;13191;47.472;11.214;2022-11-15T14:07:37;17.10;99.90
25248;DHT22;13191;47.472;11.214;2022-11-15T14:10:34;16.80;99.90
25248;DHT22;13191;47.472;11.214;2022-11-15T14:13:02;16.70;99.90
25248;DHT22;13191;47.472;11.214;2022-11-15T14:15:34;16.60;99.90
25248;DHT22;13191;47.472;11.214;2022-11-15T14:18:00;16.50;99.90
25248;DHT22;13191;47.472;11.214;2022-11-15T14:20:27;16.30;99.90
25248;DHT22;13191;47.472;11.214;2022-11-15T14:22:55;16.10;99.90
25248;DHT22;13191;47.472;11.214;2022-11-15T14:25:22;15.70;99.90
25248;DHT22;13191;47.472;11.214;2022-11-15T14:28:15;15.60;99.90
25248;DHT22;13191;47.472;11.214;2022-11-15T14:30:42;15.20;99.90
25248;DHT22;13191;47.472;11.214;2022-11-15T14:33:32;15.10;99.90
25248;DHT22;13191;47.472;11.214;2022-11-15T14:38:31;14.80;99.90
25248;DHT22;13191;47.472;11.214;2022-11-15T14:40:56;14.60;99.90
25248;DHT22;13191;47.472;11.214;2022-11-15T14:43:23;14.50;99.90
25248;DHT22;13191;47.472;11.214;2022-11-15T14:45:49;14.30;99.90
25248;DHT22;13191;47.472;11.214;2022-11-15T14:48:14;14.10;99.90
25248;DHT22;13191;47.472;11.214;2022-11-15T14:50:40;14.10;99.90
25248;DHT22;13191;47.472;11.214;2022-11-15T14:53:06;14.10;99.90
25248;DHT22;13191;47.472;11.214;2022-11-15T14:55:35;14.10;99.90
25248;DHT22;13191;47.472;11.214;2022-11-15T14:58:05;14.00;99.90
25248;DHT22;13191;47.472;11.214;2022-11-15T15:00:34;13.90;99.90
25248;DHT22;13191;47.472;11.214;2022-11-15T15:03:00;13.80;99.90
25248;DHT22;13191;47.472;11.214;2022-11-15T15:05:37;13.80;99.90
25248;DHT22;13191;47.472;11.214;2022-11-15T15:08:04;13.80;99.90
25248;DHT22;13191;47.472;11.214;2022-11-15T15:10:36;13.70;99.90
25248;DHT22;13191;47.472;11.214;2022-11-15T15:13:02;13.60;99.90
25248;DHT22;13191;47.472;11.214;2022-11-15T15:15:35;13.40;99.90
25248;DHT22;13191;47.472;11.214;2022-11-15T15:18:01;13.30;99.90
25248;DHT22;13191;47.472;11.214;2022-11-15T15:20:27;13.20;99.90
25248;DHT22;13191;47.472;11.214;2022-11-15T15:22:53;13.30;99.90
25248;DHT22;13191;47.472;11.214;2022-11-15T15:27:44;13.20;99.90
25248;DHT22;13191;47.472;11.214;2022-11-15T15:30:10;13.00;99.90
25248;DHT22;13191;47.472;11.214;2022-11-15T15:32:36;12.90;99.90
25248;DHT22;13191;47.472;11.214;2022-11-15T15:35:01;12.90;99.90
25248;DHT22;13191;47.472;11.214;2022-11-15T15:37:27;12.80;99.90
25248;DHT22;13191;47.472;11.214;2022-11-15T15:39:55;12.70;99.90
25248;DHT22;13191;47.472;11.214;2022-11-15T15:42:22;12.70;99.90
25248;DHT22;13191;47.472;11.214;2022-11-15T15:44:48;12.60;99.90
25248;DHT22;13191;47.472;11.214;2022-11-15T15:47:22;12.60;99.90
25248;DHT22;13191;47.472;11.214;2022-11-15T15:49:50;12.40;99.90
25248;DHT22;13191;47.472;11.214;2022-11-15T15:52:16;12.30;99.90
25248;DHT22;13191;47.472;11.214;2022-11-15T15:54:42;12.20;99.90
25248;DHT22;13191;47.472;11.214;2022-11-15T15:57:08;12.00;99.90
25248;DHT22;13191;47.472;11.214;2022-11-15T15:59:36;11.90;99.90
25248;DHT22;13191;47.472;11.214;2022-11-15T16:02:02;11.80;99.90
25248;DHT22;13191;47.472;11.214;2022-11-15T16:04:27;11.60;99.90
25248;DHT22;13191;47.472;11.214;2022-11-15T16:06:58;11.50;99.90
25248;DHT22;13191;47.472;11.214;2022-11-15T16:09:24;11.50;99.90
25248;DHT22;13191;47.472;11.214;2022-11-15T16:12:09;11.40;99.90
25248;DHT22;13191;47.472;11.214;2022-11-15T16:14:35;11.40;99.90
25248;DHT22;13191;47.472;11.214;2022-11-15T16:17:01;11.30;99.90
25248;DHT22;13191;47.472;11.214;2022-11-15T16:19:27;11.30;99.90
25248;DHT22;13191;47.472;11.214;2022-11-15T16:21:52;11.10;99.90
25248;DHT22;13191;47.472;11.214;2022-11-15T16:24:19;11.10;99.90
25248;DHT22;13191;47.472;11.214;2022-11-15T16:26:45;11.00;99.90
25248;DHT22;13191;47.472;11.214;2022-11-15T16:29:12;11.00;99.90
25248;DHT22;13191;47.472;11.214;2022-11-15T16:31:37;10.80;99.90
25248;DHT22;13191;47.472;11.214;2022-11-15T16:34:03;10.70;99.90
25248;DHT22;13191;47.472;11.214;2022-11-15T16:36:32;10.60;99.90
25248;DHT22;13191;47.472;11.214;2022-11-15T16:38:58;10.60;99.90
25248;DHT22;13191;47.472;11.214;2022-11-15T16:41:24;10.60;99.90
25248;DHT22;13191;47.472;11.214;2022-11-15T16:43:50;10.60;99.90
25248;DHT22;13191;47.472;11.214;2022-11-15T16:46:24;10.60;99.90
25248;DHT22;13191;47.472;11.214;2022-11-15T16:48:51;10.50;99.90
25248;DHT22;13191;47.472;11.214;2022-11-15T16:51:18;10.50;99.90
25248;DHT22;13191;47.472;11.214;2022-11-15T16:53:44;10.40;99.90
25248;DHT22;13191;47.472;11.214;2022-11-15T16:56:28;10.40;99.90
25248;DHT22;13191;47.472;11.214;2022-11-15T16:58:55;10.40;99.90
25248;DHT22;13191;47.472;11.214;2022-11-15T17:01:32;10.30;99.90
25248;DHT22;13191;47.472;11.214;2022-11-15T17:03:58;10.00;99.90
25248;DHT22;13191;47.472;11.214;2022-11-15T17:06:25;9.80;99.90
25248;DHT22;13191;47.472;11.214;2022-11-15T17:08:51;9.80;99.90
25248;DHT22;13191;47.472;11.214;2022-11-15T17:11:19;9.70;99.90
25248;DHT22;13191;47.472;11.214;2022-11-15T17:13:45;9.70;99.90
25248;DHT22;13191;47.472;11.214;2022-11-15T17:16:13;9.70;99.90
25248;DHT22;13191;47.472;11.214;2022-11-15T17:18:40;9.50;99.90
25248;DHT22;13191;47.472;11.214;2022-11-15T17:21:08;9.10;99.90
25248;DHT22;13191;47.472;11.214;2022-11-15T17:23:34;9.00;99.90
25248;DHT22;13191;47.472;11.214;2022-11-15T17:26:00;9.10;99.90
25248;DHT22;13191;47.472;11.214;2022-11-15T17:28:29;9.10;99.90
25248;DHT22;13191;47.472;11.214;2022-11-15T17:30:54;9.10;99.90
25248;DHT22;13191;47.472;11.214;2022-11-15T17:33:20;9.10;99.90
25248;DHT22;13191;47.472;11.214;2022-11-15T17:35:45;9.10;99.90
25248;DHT22;13191;47.472;11.214;2022-11-15T17:38:11;8.90;99.90
25248;DHT22;13191;47.472;11.214;2022-11-15T17:40:36;8.90;99.90